Time;durP1;ratioP1;P1;durP2;ratioP2;P2;SDS_P1;SDS_P2;PMS_P1;PMS_P2;Temp;Humidity;BMP_temperature;BMP_pressure;BME280_temperature;BME280_humidity;BME280_pressure;Samples;Min_cycle;Max_cycle;Signal;HPM_P1;HPM_P2
2024/02/05 00:00:03;;;;;;;0.20;0.20;;;;;;;9.29;60.64;101400.91;5030445;28;20021;-94
2024/02/05 00:02:28;;;;;;;0.20;0.20;;;;;;;9.38;59.68;101382.53;4998225;28;20025;-93
2024/02/05 00:04:54;;;;;;;0.20;0.20;;;;;;;9.70;59.38;101403.88;5034882;28;20029;-93
2024/02/05 00:07:20;;;;;;;0.20;0.20;;;;;;;9.89;58.71;101407.56;5034532;28;20025;-92
2024/02/05 00:09:47;;;;;;;0.20;0.20;;;;;;;10.02;58.04;101403.63;5018217;28;20093;-93
2024/02/05 00:12:13;;;;;;;0.20;0.20;;;;;;;10.20;57.72;101403.91;5034618;28;20064;-93
2024/02/05 00:14:39;;;;;;;0.20;0.20;;;;;;;10.31;57.08;101404.41;5018400;28;20522;-93
2024/02/05 00:17:05;;;;;;;0.20;0.20;;;;;;;10.46;56.93;101403.88;5017857;28;20108;-93
2024/02/05 00:19:30;;;;;;;0.20;0.20;;;;;;;10.41;56.75;101402.34;5018124;28;20041;-93
2024/02/05 00:21:56;;;;;;;0.20;0.20;;;;;;;10.34;56.90;101391.38;5001264;28;20522;-93
2024/02/05 00:24:23;;;;;;;0.20;0.20;;;;;;;10.48;56.71;101390.88;5017578;28;20021;-93
2024/02/05 00:26:48;;;;;;;0.20;0.20;;;;;;;10.48;56.28;101365.00;5018114;28;20029;-93
2024/02/05 00:29:14;;;;;;;0.20;0.20;;;;;;;10.51;56.39;101370.91;5034193;28;20079;-93
2024/02/05 00:31:39;;;;;;;0.20;0.20;;;;;;;10.48;56.38;101372.78;5017724;28;20075;-92
2024/02/05 00:34:05;;;;;;;0.20;0.20;;;;;;;10.42;56.33;101376.44;5017685;28;20029;-93
2024/02/05 00:36:31;;;;;;;0.20;0.20;;;;;;;10.34;56.40;101357.75;5017305;28;20030;-92
2024/02/05 00:38:57;;;;;;;0.20;0.20;;;;;;;10.36;56.35;101370.63;5034136;28;20506;-93
2024/02/05 00:41:23;;;;;;;0.20;0.20;;;;;;;10.14;56.80;101344.69;5001308;28;20033;-93
2024/02/05 00:43:48;;;;;;;0.20;0.20;;;;;;;10.24;57.13;101366.75;5035053;28;20064;-93
2024/02/05 00:46:23;;;;;;;0.20;0.20;;;;;;;10.27;56.74;101358.88;5017398;28;20754;-92
2024/02/05 00:48:55;;;;;;;0.20;0.20;;;;;;;10.20;57.13;101349.59;5017776;28;20099;-93
2024/02/05 00:51:21;;;;;;;0.20;0.20;;;;;;;10.24;57.01;101343.47;5033680;28;20033;-93
2024/02/05 00:53:47;;;;;;;0.20;0.20;;;;;;;10.29;56.92;101344.16;5017336;28;20280;-93
2024/02/05 00:56:12;;;;;;;0.20;0.20;;;;;;;10.30;57.13;101341.50;5000845;28;20513;-93
2024/02/05 00:58:38;;;;;;;0.20;0.20;;;;;;;10.29;56.97;101349.31;5033833;28;20076;-92
2024/02/05 01:01:04;;;;;;;0.20;0.20;;;;;;;10.28;56.78;101342.47;5033960;28;20083;-93
2024/02/05 01:03:30;;;;;;;0.20;0.20;;;;;;;10.24;56.88;101335.72;5017306;28;20025;-93
2024/02/05 01:05:56;;;;;;;0.20;0.20;;;;;;;10.21;56.96;101335.78;5017038;28;20060;-93
2024/02/05 01:08:22;;;;;;;0.20;0.20;;;;;;;10.19;56.85;101333.25;5033534;28;20033;-92
2024/02/05 01:10:47;;;;;;;0.20;0.20;;;;;;;10.16;57.02;101332.53;5017069;28;20025;-93
2024/02/05 01:13:13;;;;;;;0.20;0.20;;;;;;;10.17;56.98;101326.47;5017027;28;20033;-93
2024/02/05 01:15:38;;;;;;;0.20;0.20;;;;;;;10.21;57.05;101320.25;5000527;28;20037;-93
2024/02/05 01:18:04;;;;;;;0.20;0.20;;;;;;;10.20;56.79;101314.25;5017138;28;20041;-92
2024/02/05 01:20:29;;;;;;;0.20;0.20;;;;;;;9.85;57.20;101281.94;5016183;28;20042;-92
2024/02/05 01:22:55;;;;;;;0.20;0.20;;;;;;;10.10;56.82;101312.06;5033300;28;20030;-93
2024/02/05 01:25:21;;;;;;;0.20;0.20;;;;;;;10.17;56.58;101331.63;5033224;28;20034;-92
2024/02/05 01:27:46;;;;;;;0.20;0.20;;;;;;;10.13;56.51;101325.75;5016714;28;20544;-93
2024/02/05 01:30:13;;;;;;;0.20;0.20;;;;;;;10.22;56.61;101311.63;5016794;28;20111;-93
2024/02/05 01:32:39;;;;;;;0.20;0.20;;;;;;;10.25;56.33;101301.19;5000734;28;20426;-93
2024/02/05 01:35:05;;;;;;;0.20;0.20;;;;;;;10.24;56.17;101296.94;5016463;28;20037;-93
2024/02/05 01:37:31;;;;;;;0.20;0.20;;;;;;;10.31;56.25;101290.63;5000178;28;20454;-92
2024/02/05 01:39:56;;;;;;;0.20;0.20;;;;;;;10.37;56.12;101280.06;5032926;28;20029;-94
2024/02/05 01:42:24;;;;;;;0.20;0.20;;;;;;;10.34;55.85;101275.00;5016646;28;20128;-93
2024/02/05 01:44:50;;;;;;;0.20;0.20;;;;;;;10.47;55.66;101285.72;5032810;28;20026;-92
2024/02/05 01:47:16;;;;;;;0.20;0.20;;;;;;;10.32;56.09;101279.38;5016427;28;20112;-93
2024/02/05 01:49:41;;;;;;;0.20;0.20;;;;;;;10.24;56.13;101278.84;4999781;28;20108;-93
2024/02/05 01:52:09;;;;;;;0.20;0.20;;;;;;;10.26;56.25;101283.03;5016203;28;20038;-92
2024/02/05 01:54:35;;;;;;;0.20;0.20;;;;;;;10.07;56.48;101277.66;5016189;28;20029;-94
2024/02/05 01:57:00;;;;;;;0.20;0.20;;;;;;;10.07;56.37;101277.66;5032783;28;20388;-93
2024/02/05 01:59:26;;;;;;;0.20;0.20;;;;;;;9.96;56.72;101274.63;5016181;28;20025;-93
2024/02/05 02:01:52;;;;;;;0.20;0.20;;;;;;;9.85;57.03;101266.44;5016651;28;20065;-94
2024/02/05 02:04:17;;;;;;;0.20;0.20;;;;;;;9.76;57.12;101252.09;5015527;28;20029;-93
2024/02/05 02:06:43;;;;;;;0.20;0.20;;;;;;;9.74;57.39;101269.38;5015926;28;20411;-93
2024/02/05 02:09:13;;;;;;;0.20;0.20;;;;;;;9.82;57.20;101261.34;5016055;28;20025;-93
2024/02/05 02:11:40;;;;;;;0.20;0.20;;;;;;;9.74;57.41;101268.56;5016692;28;20061;-93
2024/02/05 02:14:07;;;;;;;0.20;0.20;;;;;;;9.66;58.14;101286.06;5016216;28;20064;-94
2024/02/05 02:16:33;;;;;;;0.20;0.20;;;;;;;9.56;58.07;101295.00;5016140;28;20040;-93
2024/02/05 02:19:01;;;;;;;0.20;0.20;;;;;;;9.56;58.17;101300.19;5032027;28;20029;-93
2024/02/05 02:21:26;;;;;;;0.20;0.20;;;;;;;9.58;58.09;101293.22;5015812;28;20049;-93
2024/02/05 02:23:52;;;;;;;0.20;0.20;;;;;;;9.51;58.42;101283.97;5015779;28;20083;-93
2024/02/05 02:26:17;;;;;;;0.20;0.20;;;;;;;9.52;58.02;101268.44;5015083;28;20033;-95
2024/02/05 02:28:43;;;;;;;0.20;0.20;;;;;;;9.44;58.30;101255.78;5032865;28;20026;-93
2024/02/05 02:31:08;;;;;;;0.20;0.20;;;;;;;9.44;58.29;101255.78;5015770;28;20033;-93
2024/02/05 02:33:59;;;;;;;0.20;0.20;;;;;;;9.40;58.35;101274.84;5015307;28;20044;-94
2024/02/05 02:36:28;;;;;;;0.20;0.20;;;;;;;9.33;58.63;101255.28;5031902;28;20030;-94
2024/02/05 02:39:16;;;;;;;0.20;0.20;;;;;;;9.37;58.59;101285.28;4999383;28;20025;-94
2024/02/05 02:41:43;;;;;;;0.20;0.20;;;;;;;9.30;58.77;101293.28;5031848;28;20052;-93
2024/02/05 02:44:08;;;;;;;0.20;0.20;;;;;;;9.35;58.68;101294.84;4999167;28;20396;-94
2024/02/05 02:46:34;;;;;;;0.20;0.20;;;;;;;9.37;58.49;101285.28;4998745;28;20036;-93
2024/02/05 02:48:59;;;;;;;0.20;0.20;;;;;;;9.38;58.57;101286.97;5015220;28;20030;-94
2024/02/05 02:51:25;;;;;;;0.20;0.20;;;;;;;9.47;58.18;101278.94;5015396;28;20025;-93
2024/02/05 02:53:51;;;;;;;0.20;0.20;;;;;;;9.54;58.52;101283.88;4998844;28;20068;-93
2024/02/05 02:56:16;;;;;;;0.20;0.20;;;;;;;9.57;58.13;101270.88;5015087;28;20470;-93
2024/02/05 02:58:42;;;;;;;0.20;0.20;;;;;;;9.58;57.87;101255.31;5014855;28;20064;-93
2024/02/05 03:01:08;;;;;;;0.20;0.20;;;;;;;9.63;58.00;101271.47;4998505;28;20049;-93
2024/02/05 03:03:34;;;;;;;0.20;0.20;;;;;;;9.60;57.93;101284.50;4998677;28;20033;-93
2024/02/05 03:06:00;;;;;;;0.20;0.20;;;;;;;9.60;57.91;101281.09;5015014;28;20035;-92
2024/02/05 03:08:25;;;;;;;0.20;0.20;;;;;;;9.54;58.35;101281.28;4998543;28;20465;-93
2024/02/05 03:10:51;;;;;;;0.20;0.20;;;;;;;9.48;58.43;101272.03;5015026;28;20030;-94
2024/02/05 03:13:17;;;;;;;0.20;0.20;;;;;;;9.47;58.04;101271.19;5014977;28;20032;-93
2024/02/05 03:15:42;;;;;;;0.20;0.20;;;;;;;9.58;58.09;101277.72;4998297;28;20025;-93
2024/02/05 03:18:09;;;;;;;0.20;0.20;;;;;;;9.50;58.03;101265.06;5014736;28;20029;-93
2024/02/05 03:20:35;;;;;;;0.20;0.20;;;;;;;9.47;58.17;101284.09;5014592;28;20099;-93
2024/02/05 03:23:03;;;;;;;0.20;0.20;;;;;;;9.43;58.36;101279.91;5014828;28;20025;-93
2024/02/05 03:25:29;;;;;;;0.20;0.20;;;;;;;9.41;58.18;101289.44;4998375;28;20029;-93
2024/02/05 03:27:57;;;;;;;0.20;0.20;;;;;;;9.40;58.49;101286.94;5014668;28;20506;-93
2024/02/05 03:30:23;;;;;;;0.20;0.20;;;;;;;9.46;58.13;101297.91;4998115;28;20087;-93
2024/02/05 03:32:49;;;;;;;0.20;0.20;;;;;;;9.50;58.04;101301.22;4998439;28;20026;-93
2024/02/05 03:35:15;;;;;;;0.20;0.20;;;;;;;9.50;57.69;101306.38;5014629;28;20065;-92
2024/02/05 03:37:42;;;;;;;0.20;0.20;;;;;;;9.58;57.62;101322.47;5030003;28;20035;-93
2024/02/05 03:40:08;;;;;;;0.20;0.20;;;;;;;9.60;57.54;101317.25;5014447;28;20025;-93
2024/02/05 03:42:34;;;;;;;0.20;0.20;;;;;;;9.57;57.82;101307.88;5014745;28;20025;-93
2024/02/05 03:44:59;;;;;;;0.20;0.20;;;;;;;9.63;57.42;101317.97;5014280;28;20026;-93
2024/02/05 03:47:25;;;;;;;0.20;0.20;;;;;;;9.62;57.82;101325.78;5014307;28;20036;-93
2024/02/05 03:49:50;;;;;;;0.20;0.20;;;;;;;9.65;57.43;101315.38;5014420;28;20434;-93
2024/02/05 03:52:16;;;;;;;0.20;0.20;;;;;;;9.48;57.52;101288.34;4998035;28;20064;-93
2024/02/05 03:54:43;;;;;;;0.20;0.20;;;;;;;9.64;57.53;101303.34;5030905;28;20083;-93
2024/02/05 03:57:09;;;;;;;0.20;0.20;;;;;;;9.59;57.32;101302.66;5031770;28;20108;-93
2024/02/05 03:59:35;;;;;;;0.20;0.20;;;;;;;9.51;57.40;101307.22;5014048;28;20579;-93
2024/02/05 04:02:02;;;;;;;0.20;0.20;;;;;;;9.58;57.40;101309.56;4997944;28;20041;-94
2024/02/05 04:04:27;;;;;;;0.20;0.20;;;;;;;9.60;57.35;101325.00;5030407;28;20087;-93
2024/02/05 04:06:53;;;;;;;0.20;0.20;;;;;;;9.53;56.95;101297.69;5014136;28;20034;-88
2024/02/05 04:09:19;;;;;;;0.20;0.20;;;;;;;9.37;57.52;101290.47;5012944;28;20030;-87
2024/02/05 04:11:44;;;;;;;0.20;0.20;;;;;;;9.46;57.45;101300.50;5029138;28;20041;-89
2024/02/05 04:14:10;;;;;;;0.20;0.20;;;;;;;9.43;56.93;101300.56;5029280;28;20025;-91
2024/02/05 04:16:36;;;;;;;0.20;0.20;;;;;;;9.64;56.66;101308.53;5014154;28;20022;-92
2024/02/05 04:19:02;;;;;;;0.20;0.20;;;;;;;9.74;56.41;101304.72;5014110;28;20036;-90
2024/02/05 04:21:28;;;;;;;0.20;0.20;;;;;;;9.82;56.02;101305.28;5030221;28;20057;-92
2024/02/05 04:23:53;;;;;;;0.20;0.20;;;;;;;9.88;55.69;101296.47;5013871;28;20029;-92
2024/02/05 04:26:19;;;;;;;0.20;0.20;;;;;;;9.73;55.90;101297.84;5014114;28;20087;-93
2024/02/05 04:28:45;;;;;;;0.20;0.20;;;;;;;9.70;55.98;101295.38;4997529;28;20060;-92
2024/02/05 04:31:11;;;;;;;0.20;0.20;;;;;;;9.78;55.47;101290.78;5014032;28;20040;-93
2024/02/05 04:33:36;;;;;;;0.20;0.20;;;;;;;9.87;54.94;101289.63;5013893;28;20032;-92
2024/02/05 04:36:02;;;;;;;0.20;0.20;;;;;;;9.95;55.03;101287.63;5013837;28;20033;-92
2024/02/05 04:38:27;;;;;;;0.20;0.20;;;;;;;9.95;54.78;101275.53;5013984;28;20030;-92
2024/02/05 04:40:53;;;;;;;0.20;0.20;;;;;;;9.95;54.75;101283.28;5015049;28;20055;-90
2024/02/05 04:43:18;;;;;;;0.20;0.20;;;;;;;9.90;54.79;101269.66;5048325;28;20029;-91
2024/02/05 04:45:44;;;;;;;0.20;0.20;;;;;;;9.76;55.09;101269.34;5033018;28;20033;-90
2024/02/05 04:48:09;;;;;;;0.20;0.20;;;;;;;9.71;55.59;101266.06;5032829;28;20033;-87
2024/02/05 04:50:35;;;;;;;0.20;0.20;;;;;;;9.88;55.04;101266.31;5035731;28;20070;-87
2024/02/05 04:53:00;;;;;;;0.20;0.20;;;;;;;9.68;55.25;101261.00;5052390;28;20040;-88
2024/02/05 04:55:26;;;;;;;0.20;0.20;;;;;;;9.88;55.22;101283.56;5052285;28;20028;-88
2024/02/05 04:57:52;;;;;;;0.20;0.20;;;;;;;9.71;54.87;101268.63;5052236;28;20040;-87
2024/02/05 05:00:20;;;;;;;0.20;0.20;;;;;;;9.83;54.67;101283.69;5068960;28;20025;-88
2024/02/05 05:02:46;;;;;;;0.20;0.20;;;;;;;9.88;54.49;101297.31;5052338;28;20499;-88
2024/02/05 05:05:11;;;;;;;0.20;0.20;;;;;;;9.92;54.70;101296.28;5035639;28;20095;-88
2024/02/05 05:07:37;;;;;;;0.20;0.20;;;;;;;9.95;54.74;101309.13;5019160;28;20025;-88
2024/02/05 05:10:03;;;;;;;0.20;0.20;;;;;;;9.93;54.41;101295.44;5052374;28;20417;-87
2024/02/05 05:12:28;;;;;;;0.20;0.20;;;;;;;9.98;54.13;101305.59;5051647;28;20025;-88
2024/02/05 05:14:54;;;;;;;0.20;0.20;;;;;;;10.04;54.03;101301.06;5050147;28;20029;-88
2024/02/05 05:17:19;;;;;;;0.20;0.20;;;;;;;10.21;53.49;101297.84;5049303;28;20087;-88
2024/02/05 05:19:45;;;;;;;0.20;0.20;;;;;;;10.00;53.56;101258.09;5052852;28;20029;-90
2024/02/05 05:22:11;;;;;;;0.20;0.20;;;;;;;10.38;52.86;101297.25;5047392;28;20166;-90
2024/02/05 05:24:36;;;;;;;0.20;0.20;;;;;;;10.49;52.50;101292.50;5053249;28;20029;-92
2024/02/05 05:27:02;;;;;;;0.20;0.20;;;;;;;10.53;52.26;101291.50;5030983;28;20442;-87
2024/02/05 05:29:27;;;;;;;0.20;0.20;;;;;;;10.52;52.13;101288.97;5047252;28;20544;-87
2024/02/05 05:31:53;;;;;;;0.20;0.20;;;;;;;10.48;51.90;101284.81;5048996;28;20029;-87
2024/02/05 05:34:21;;;;;;;0.20;0.20;;;;;;;10.66;51.68;101301.38;5047815;28;20392;-83
2024/02/05 05:36:47;;;;;;;0.20;0.20;;;;;;;10.70;51.49;101293.44;5040976;28;20495;-83
2024/02/05 05:39:12;;;;;;;0.20;0.20;;;;;;;10.72;51.29;101299.41;5057330;28;20029;-93
2024/02/05 05:41:38;;;;;;;0.20;0.20;;;;;;;10.71;50.98;101266.66;5036012;28;20029;-91
2024/02/05 05:44:03;;;;;;;0.20;0.20;;;;;;;10.84;51.27;101295.50;5051328;28;20044;-87
2024/02/05 05:46:29;;;;;;;0.20;0.20;;;;;;;10.85;51.00;101303.19;5034913;28;20021;-92
2024/02/05 05:48:55;;;;;;;0.20;0.20;;;;;;;10.85;51.21;101300.63;5051166;28;20056;-88
2024/02/05 05:51:20;;;;;;;0.20;0.20;;;;;;;10.68;50.87;101260.75;5036666;28;20357;-92
2024/02/05 05:53:46;;;;;;;0.20;0.20;;;;;;;10.85;50.76;101297.19;5048149;28;20111;-90
2024/02/05 05:56:11;;;;;;;0.20;0.20;;;;;;;10.94;50.38;101301.16;5033465;23;20078;-87
2024/02/05 05:58:37;;;;;;;0.20;0.20;;;;;;;11.00;50.31;101295.72;4972555;28;20034;-89
2024/02/05 06:01:05;;;;;;;0.20;0.20;;;;;;;11.07;49.92;101304.94;4976189;28;20506;-92
2024/02/05 06:03:31;;;;;;;0.20;0.20;;;;;;;10.90;50.12;101295.25;4971160;28;20027;-89
2024/02/05 06:05:58;;;;;;;0.20;0.20;;;;;;;10.96;50.32;101304.53;4956109;28;20038;-89
2024/02/05 06:08:24;;;;;;;0.20;0.20;;;;;;;11.05;50.41;101320.53;4969978;28;21258;-86
2024/02/05 06:10:49;;;;;;;0.20;0.20;;;;;;;11.06;49.81;101327.41;4985465;28;20113;-92
2024/02/05 06:13:15;;;;;;;0.20;0.20;;;;;;;11.00;49.84;101312.09;4976794;28;20348;-84
2024/02/05 06:15:40;;;;;;;0.20;0.20;;;;;;;11.07;49.85;101312.69;4970660;28;21286;-85
2024/02/05 06:18:06;;;;;;;0.20;0.20;;;;;;;11.19;49.72;101327.75;4986743;28;20102;-83
2024/02/05 06:20:32;;;;;;;0.20;0.20;;;;;;;11.19;49.87;101332.91;4988938;28;20050;-92
2024/02/05 06:22:57;;;;;;;0.20;0.20;;;;;;;11.18;49.77;101332.06;4973011;28;20030;-92
2024/02/05 06:25:23;;;;;;;0.20;0.20;;;;;;;11.13;49.99;101330.59;4991324;28;20501;-87
2024/02/05 06:27:49;;;;;;;0.20;0.20;;;;;;;11.05;49.38;101305.00;4986004;28;20070;-88
2024/02/05 06:30:14;;;;;;;0.20;0.20;;;;;;;11.15;50.13;101301.13;4990616;28;20053;-89
2024/02/05 06:32:40;;;;;;;0.20;0.20;;;;;;;11.11;49.79;101291.81;4972573;28;20035;-93
2024/02/05 06:35:06;;;;;;;0.20;0.20;;;;;;;10.97;50.30;101283.75;4968100;28;20085;-91
2024/02/05 06:37:31;;;;;;;0.20;0.20;;;;;;;11.01;50.45;101287.91;4970159;28;20103;-85
2024/02/05 06:39:57;;;;;;;0.20;0.20;;;;;;;11.03;49.85;101274.91;4971624;28;20027;-87
2024/02/05 06:42:23;;;;;;;0.20;0.20;;;;;;;10.94;49.92;101280.44;4974654;28;20023;-93
2024/02/05 06:44:49;;;;;;;0.20;0.20;;;;;;;10.96;49.63;101265.69;4970607;28;20066;-88
2024/02/05 06:47:15;;;;;;;0.20;0.20;;;;;;;11.12;49.83;101275.38;4986429;28;20085;-87
2024/02/05 06:49:40;;;;;;;0.20;0.20;;;;;;;11.11;49.29;101265.94;4982154;28;20042;-88
2024/02/05 06:52:06;;;;;;;0.20;0.20;;;;;;;11.24;49.30;101278.38;4972297;28;20037;-91
2024/02/05 06:54:32;;;;;;;0.20;0.20;;;;;;;11.24;49.34;101268.84;4986263;28;20096;-86
2024/02/05 06:57:00;;;;;;;0.20;0.20;;;;;;;11.33;49.16;101267.63;4965101;28;20078;-93
2024/02/05 06:59:26;;;;;;;0.20;0.20;;;;;;;11.33;48.89;101254.66;4973826;28;20027;-91
2024/02/05 07:01:53;;;;;;;0.20;0.20;;;;;;;11.51;48.35;101261.66;4972938;28;20034;-91
2024/02/05 07:04:19;;;;;;;0.20;0.20;;;;;;;11.67;48.22;101267.00;4986458;28;20026;-93
2024/02/05 07:06:45;;;;;;;0.20;0.20;;;;;;;11.81;47.81;101269.91;4956530;28;20043;-89
2024/02/05 07:09:11;;;;;;;0.20;0.20;;;;;;;11.87;47.96;101254.06;4975805;28;20030;-88
2024/02/05 07:11:37;;;;;;;0.20;0.20;;;;;;;11.91;47.32;101250.44;4985931;28;20118;-88
2024/02/05 07:14:03;;;;;;;0.20;0.20;;;;;;;12.06;47.91;101259.28;4985417;28;20026;-87
2024/02/05 07:16:28;;;;;;;0.20;0.20;;;;;;;12.18;47.20;101256.13;4989410;28;20030;-90
2024/02/05 07:18:54;;;;;;;0.20;0.20;;;;;;;12.18;46.73;101271.69;4972580;28;20034;-87
2024/02/05 07:21:20;;;;;;;0.20;0.20;;;;;;;12.25;46.92;101273.09;4989266;28;20034;-87
2024/02/05 07:23:45;;;;;;;0.20;0.20;;;;;;;12.41;46.58;101287.97;4970671;28;20497;-91
2024/02/05 07:26:11;;;;;;;0.20;0.20;;;;;;;12.46;46.46;101293.78;4941031;28;20100;-91
2024/02/05 07:28:36;;;;;;;0.20;0.20;;;;;;;12.55;46.17;101280.38;4981734;28;20077;-85
2024/02/05 07:31:02;;;;;;;0.20;0.20;;;;;;;12.67;46.31;101291.94;4973182;28;20022;-90
2024/02/05 07:33:28;;;;;;;0.20;0.20;;;;;;;12.88;46.00;101286.59;4972255;28;20073;-91
2024/02/05 07:35:53;;;;;;;0.20;0.20;;;;;;;13.01;46.06;101292.03;4972512;28;20576;-84
2024/02/05 07:38:19;;;;;;;0.20;0.20;;;;;;;13.11;45.25;101290.66;4988756;28;20020;-86
2024/02/05 07:40:45;;;;;;;0.20;0.20;;;;;;;13.28;45.07;101276.03;4965676;28;20528;-88
2024/02/05 07:43:10;;;;;;;0.20;0.20;;;;;;;13.48;44.80;101262.88;4965271;28;20074;-85
2024/02/05 07:45:36;;;;;;;0.20;0.20;;;;;;;13.60;44.37;101251.00;4985689;28;20023;-90
2024/02/05 07:48:02;;;;;;;0.20;0.20;;;;;;;13.63;43.99;101243.88;4971378;28;20077;-89
2024/02/05 07:50:28;;;;;;;0.20;0.20;;;;;;;13.81;43.88;101249.88;4971144;28;20090;-86
2024/02/05 07:52:54;;;;;;;0.20;0.20;;;;;;;13.83;43.50;101232.44;4970875;28;20038;-89
2024/02/05 07:55:20;;;;;;;0.20;0.20;;;;;;;14.02;43.05;101230.53;4969395;28;20421;-87
2024/02/05 07:57:45;;;;;;;0.20;0.20;;;;;;;14.09;43.10;101219.81;4968987;28;20054;-86
2024/02/05 08:00:12;;;;;;;0.10;0.10;;;;;;;14.28;42.60;101220.50;4960999;28;20027;-87
2024/02/05 08:02:37;;;;;;;0.20;0.20;;;;;;;14.34;42.12;101210.56;4973637;28;20085;-86
2024/02/05 08:05:03;;;;;;;0.20;0.20;;;;;;;14.31;42.63;101213.34;4982312;28;20039;-86
2024/02/05 08:07:29;;;;;;;0.20;0.20;;;;;;;14.68;42.00;101239.13;4985525;28;20031;-84
2024/02/05 08:09:54;;;;;;;0.20;0.20;;;;;;;14.79;41.63;101241.97;4985257;28;20493;-88
2024/02/05 08:12:20;;;;;;;0.20;0.20;;;;;;;14.93;40.79;101227.22;4985081;28;20515;-93
2024/02/05 08:14:46;;;;;;;0.20;0.20;;;;;;;15.09;40.58;101228.94;4955569;28;21094;-82
2024/02/05 08:17:11;;;;;;;0.20;0.20;;;;;;;15.00;40.22;101245.13;4970212;28;20501;-83
2024/02/05 08:19:37;;;;;;;0.20;0.20;;;;;;;15.05;40.68;101236.13;4972881;28;20041;-84
2024/02/05 08:22:02;;;;;;;0.20;0.20;;;;;;;15.17;39.94;101245.81;4985226;28;20027;-86
2024/02/05 08:24:28;;;;;;;0.20;0.20;;;;;;;15.09;40.52;101240.22;4987323;28;20035;-87
2024/02/05 08:26:53;;;;;;;0.20;0.20;;;;;;;15.15;39.88;101237.25;4973691;28;20202;-91
2024/02/05 08:29:22;;;;;;;0.20;0.20;;;;;;;15.16;39.75;101241.53;4973780;28;20511;-88
2024/02/05 08:31:48;;;;;;;0.20;0.20;;;;;;;15.19;39.84;101253.53;4974887;28;20039;-88
2024/02/05 08:34:14;;;;;;;0.20;0.20;;;;;;;15.36;39.52;101268.22;4988945;28;20166;-89
2024/02/05 08:36:40;;;;;;;0.20;0.20;;;;;;;15.42;39.25;101278.25;4973459;28;20034;-91
2024/02/05 08:39:08;;;;;;;0.20;0.20;;;;;;;15.71;38.97;101268.75;4974525;28;20120;-87
2024/02/05 08:41:34;;;;;;;0.20;0.20;;;;;;;15.90;38.17;101263.25;4954796;28;20039;-88
2024/02/05 08:44:01;;;;;;;0.20;0.20;;;;;;;16.11;37.71;101274.97;4974497;28;20027;-87
2024/02/05 08:46:27;;;;;;;0.20;0.20;;;;;;;16.24;37.30;101272.47;4971608;28;20051;-87
2024/02/05 08:48:52;;;;;;;0.20;0.20;;;;;;;16.35;37.29;101301.34;4975002;28;20553;-91
2024/02/05 08:51:18;;;;;;;0.20;0.20;;;;;;;16.23;37.51;101276.84;4972072;28;20038;-87
2024/02/05 08:53:43;;;;;;;0.20;0.20;;;;;;;16.45;37.85;101291.16;4972820;28;20031;-84
2024/02/05 08:56:09;;;;;;;0.20;0.20;;;;;;;16.33;37.81;101270.13;4983311;28;20130;-86
2024/02/05 08:58:35;;;;;;;0.20;0.20;;;;;;;16.48;37.22;101290.97;4975186;28;20169;-87
2024/02/05 09:01:00;;;;;;;0.20;0.20;;;;;;;16.34;37.42;101271.78;4973251;28;20109;-89
2024/02/05 09:03:26;;;;;;;0.20;0.20;;;;;;;16.16;37.62;101299.03;4988137;28;20493;-88
2024/02/05 09:05:52;;;;;;;0.20;0.20;;;;;;;16.11;37.71;101308.91;4957660;28;20518;-87
2024/02/05 09:08:20;;;;;;;0.20;0.20;;;;;;;16.27;37.52;101312.25;4967706;28;20500;-82
2024/02/05 09:10:46;;;;;;;0.20;0.20;;;;;;;16.32;37.54;101302.38;4972276;28;20078;-91
2024/02/05 09:13:11;;;;;;;0.20;0.20;;;;;;;16.37;37.12;101293.41;4970240;28;20034;-85
2024/02/05 09:15:39;;;;;;;0.20;0.20;;;;;;;16.50;36.85;101296.94;4968644;28;20026;-86
2024/02/05 09:18:05;;;;;;;0.20;0.20;;;;;;;16.52;36.75;101289.84;4939770;28;20053;-89
2024/02/05 09:20:31;;;;;;;0.20;0.20;;;;;;;16.66;36.33;101276.75;4972504;28;20117;-90
2024/02/05 09:22:57;;;;;;;0.20;0.20;;;;;;;16.82;36.33;101268.81;4961497;28;20730;-88
2024/02/05 09:25:22;;;;;;;0.15;0.15;;;;;;;17.05;35.92;101291.66;4981619;28;20041;-87
2024/02/05 09:27:48;;;;;;;0.20;0.20;;;;;;;17.07;35.64;101275.88;4970132;28;20413;-87
2024/02/05 09:30:14;;;;;;;0.20;0.20;;;;;;;17.09;35.48;101274.81;4973416;28;20038;-88
2024/02/05 09:32:39;;;;;;;0.20;0.20;;;;;;;17.01;35.31;101265.81;4984791;28;20106;-87
2024/02/05 09:35:05;;;;;;;0.20;0.20;;;;;;;17.20;35.11;101258.41;4952132;28;20039;-89
2024/02/05 09:37:31;;;;;;;0.20;0.20;;;;;;;17.23;34.98;101265.25;4966463;28;20031;-87
2024/02/05 09:39:56;;;;;;;0.20;0.20;;;;;;;17.10;35.36;101258.19;4971187;28;20031;-94
2024/02/05 09:42:22;;;;;;;0.20;0.20;;;;;;;16.89;35.09;101243.94;4975572;28;20030;-89
2024/02/05 09:44:50;;;;;;;0.20;0.20;;;;;;;17.13;35.23;101236.25;4966421;28;20043;-87
2024/02/05 09:47:18;;;;;;;0.20;0.20;;;;;;;17.33;35.19;101233.13;4965618;28;20113;-83
2024/02/05 09:49:48;;;;;;;0.20;0.20;;;;;;;17.21;34.21;101207.81;4961567;28;20070;-87
2024/02/05 09:52:15;;;;;;;0.20;0.20;;;;;;;17.32;34.02;101210.53;4973021;28;20496;-91
2024/02/05 09:54:41;;;;;;;0.20;0.20;;;;;;;17.34;34.32;101224.34;4966560;28;20105;-88
2024/02/05 09:57:10;;;;;;;0.20;0.20;;;;;;;17.41;33.94;101220.38;4951895;28;20062;-91
2024/02/05 09:59:37;;;;;;;0.20;0.20;;;;;;;17.46;33.99;101223.50;4971570;28;20110;-88
2024/02/05 10:02:06;;;;;;;0.20;0.20;;;;;;;17.46;33.79;101217.44;4972698;28;20081;-89
2024/02/05 10:04:37;;;;;;;0.20;0.20;;;;;;;17.54;33.47;101211.69;4963950;28;20031;-87
2024/02/05 10:07:03;;;;;;;0.20;0.20;;;;;;;17.85;33.35;101213.88;4973949;28;20146;-84
2024/02/05 10:09:29;;;;;;;0.20;0.20;;;;;;;17.92;32.91;101215.13;4965338;28;20045;-93
2024/02/05 10:11:56;;;;;;;0.20;0.20;;;;;;;18.09;32.37;101205.22;4989542;28;20038;-92
2024/02/05 10:14:25;;;;;;;0.20;0.20;;;;;;;18.17;32.64;101216.84;4955387;28;20039;-94
2024/02/05 10:16:52;;;;;;;0.20;0.20;;;;;;;18.25;31.98;101175.22;4975238;28;20062;-90
2024/02/05 10:19:18;;;;;;;0.20;0.20;;;;;;;18.55;31.52;101193.13;4971983;28;20027;-86
2024/02/05 10:21:43;;;;;;;0.20;0.20;;;;;;;18.67;31.63;101180.91;4962442;28;20043;-87
2024/02/05 10:24:15;;;;;;;0.20;0.20;;;;;;;18.79;31.78;101187.91;4976296;28;20073;-89
2024/02/05 10:26:41;;;;;;;0.20;0.20;;;;;;;18.86;31.04;101188.25;4957343;28;20097;-90
2024/02/05 10:29:12;;;;;;;0.20;0.20;;;;;;;19.02;31.31;101173.06;4964293;28;20050;-91
2024/02/05 10:31:49;;;;;;;0.15;0.15;;;;;;;19.24;30.92;101168.78;4973812;28;20412;-89
2024/02/05 10:34:16;;;;;;;0.20;0.20;;;;;;;19.45;30.48;101177.63;4983325;28;20023;-91
2024/02/05 10:36:41;;;;;;;0.20;0.20;;;;;;;19.57;29.90;101162.78;4967246;28;20035;-91
2024/02/05 10:39:07;;;;;;;0.20;0.20;;;;;;;19.64;30.05;101140.31;4972008;28;20037;-83
2024/02/05 10:41:32;;;;;;;0.20;0.20;;;;;;;19.84;29.92;101136.09;4954081;28;20142;-84
2024/02/05 10:43:58;;;;;;;0.20;0.20;;;;;;;19.80;29.05;101151.28;4970001;28;20038;-86
2024/02/05 10:46:33;;;;;;;0.20;0.20;;;;;;;19.69;28.66;101131.13;4987080;28;20035;-92
2024/02/05 10:49:02;;;;;;;0.20;0.20;;;;;;;19.89;28.29;101126.09;4958772;28;20114;-89
2024/02/05 10:51:27;;;;;;;0.20;0.20;;;;;;;19.87;29.17;101120.13;4966736;28;20027;-88
2024/02/05 10:53:53;;;;;;;0.20;0.20;;;;;;;19.91;28.13;101127.63;4970916;28;20038;-90
2024/02/05 10:56:19;;;;;;;0.20;0.20;;;;;;;19.87;28.82;101104.38;4986963;28;20113;-88
2024/02/05 10:58:48;;;;;;;0.20;0.20;;;;;;;20.07;28.56;101122.00;4971752;28;20034;-90
2024/02/05 11:01:16;;;;;;;0.20;0.20;;;;;;;20.23;27.71;101126.81;4971532;28;20034;-92
2024/02/05 11:03:45;;;;;;;0.20;0.20;;;;;;;20.20;28.24;101122.66;4986055;28;20062;-83
2024/02/05 11:06:12;;;;;;;0.20;0.20;;;;;;;20.17;27.63;101109.78;4965036;28;20118;-82
2024/02/05 11:08:38;;;;;;;0.20;0.20;;;;;;;20.20;27.84;101111.31;4970411;28;20507;-89
2024/02/05 11:11:09;;;;;;;0.20;0.20;;;;;;;20.26;28.18;101116.91;4971366;28;20481;-84
2024/02/05 11:13:40;;;;;;;0.20;0.20;;;;;;;20.36;27.29;101121.41;4969393;28;20046;-83
2024/02/05 11:16:06;;;;;;;0.20;0.20;;;;;;;20.07;27.52;101085.22;4981736;28;20053;-86
2024/02/05 11:18:38;;;;;;;0.20;0.20;;;;;;;20.44;26.70;101108.47;4969975;28;20477;-83
2024/02/05 11:21:04;;;;;;;0.20;0.20;;;;;;;20.51;26.68;101109.66;4969772;28;20139;-85